sensor_id;sensor_type;location;lat;lon;timestamp;pressure;altitude;pressure_sealevel;temperature;humidity
9935;BME280;5006;41.828;23.478;2022-07-29T00:00:08;90653.53;;;19.41;100.00
9935;BME280;5006;41.828;23.478;2022-07-29T00:01:14;90658.13;;;19.16;100.00
9935;BME280;5006;41.828;23.478;2022-07-29T00:02:20;90653.78;;;19.47;100.00
9935;BME280;5006;41.828;23.478;2022-07-29T00:03:25;90649.78;;;19.23;100.00
9935;BME280;5006;41.828;23.478;2022-07-29T00:04:33;90646.97;;;19.26;100.00
9935;BME280;5006;41.828;23.478;2022-07-29T00:05:40;90652.22;;;19.05;100.00
9935;BME280;5006;41.828;23.478;2022-07-29T00:06:45;90649.97;;;19.44;100.00
9935;BME280;5006;41.828;23.478;2022-07-29T00:07:50;90640.75;;;19.67;100.00
9935;BME280;5006;41.828;23.478;2022-07-29T00:08:55;90648.19;;;19.91;100.00
9935;BME280;5006;41.828;23.478;2022-07-29T00:10:03;90646.75;;;19.86;100.00
9935;BME280;5006;41.828;23.478;2022-07-29T00:11:09;90645.66;;;19.72;100.00
9935;BME280;5006;41.828;23.478;2022-07-29T00:12:14;90649.66;;;19.55;100.00
9935;BME280;5006;41.828;23.478;2022-07-29T00:13:20;90645.06;;;19.39;100.00
9935;BME280;5006;41.828;23.478;2022-07-29T00:14:25;90635.69;;;19.12;100.00
9935;BME280;5006;41.828;23.478;2022-07-29T00:15:31;90644.44;;;18.91;100.00
9935;BME280;5006;41.828;23.478;2022-07-29T00:16:36;90636.56;;;19.09;100.00
9935;BME280;5006;41.828;23.478;2022-07-29T00:17:42;90646.31;;;19.06;100.00
9935;BME280;5006;41.828;23.478;2022-07-29T00:18:47;90632.47;;;19.17;100.00
9935;BME280;5006;41.828;23.478;2022-07-29T00:19:52;90634.59;;;19.38;100.00
9935;BME280;5006;41.828;23.478;2022-07-29T00:20:57;90635.38;;;19.38;100.00
9935;BME280;5006;41.828;23.478;2022-07-29T00:22:03;90633.69;;;19.00;100.00
9935;BME280;5006;41.828;23.478;2022-07-29T00:23:07;90628.69;;;19.27;100.00
9935;BME280;5006;41.828;23.478;2022-07-29T00:24:13;90628.50;;;19.34;100.00
9935;BME280;5006;41.828;23.478;2022-07-29T00:25:19;90623.47;;;19.32;100.00
9935;BME280;5006;41.828;23.478;2022-07-29T00:26:25;90624.03;;;19.27;100.00
9935;BME280;5006;41.828;23.478;2022-07-29T00:27:32;90627.53;;;19.40;100.00
9935;BME280;5006;41.828;23.478;2022-07-29T00:28:37;90622.72;;;19.03;100.00
9935;BME280;5006;41.828;23.478;2022-07-29T00:29:42;90627.72;;;18.76;100.00
9935;BME280;5006;41.828;23.478;2022-07-29T00:30:48;90636.47;;;18.84;100.00
9935;BME280;5006;41.828;23.478;2022-07-29T00:31:52;90638.88;;;18.94;100.00
9935;BME280;5006;41.828;23.478;2022-07-29T00:32:58;90639.34;;;19.21;100.00
9935;BME280;5006;41.828;23.478;2022-07-29T00:34:04;90636.59;;;19.50;100.00
9935;BME280;5006;41.828;23.478;2022-07-29T00:35:10;90634.09;;;19.43;100.00
9935;BME280;5006;41.828;23.478;2022-07-29T00:36:33;90638.84;;;19.39;100.00
9935;BME280;5006;41.828;23.478;2022-07-29T00:37:39;90631.56;;;19.36;100.00
9935;BME280;5006;41.828;23.478;2022-07-29T00:38:43;90636.75;;;19.30;100.00
9935;BME280;5006;41.828;23.478;2022-07-29T00:39:50;90639.94;;;19.29;100.00
9935;BME280;5006;41.828;23.478;2022-07-29T00:40:56;90631.63;;;19.20;100.00
9935;BME280;5006;41.828;23.478;2022-07-29T00:42:03;90634.59;;;19.09;100.00
9935;BME280;5006;41.828;23.478;2022-07-29T00:43:08;90638.47;;;18.96;100.00
9935;BME280;5006;41.828;23.478;2022-07-29T00:44:14;90642.28;;;18.98;100.00
9935;BME280;5006;41.828;23.478;2022-07-29T00:45:19;90631.31;;;19.02;100.00
9935;BME280;5006;41.828;23.478;2022-07-29T00:46:26;90630.63;;;18.98;100.00
9935;BME280;5006;41.828;23.478;2022-07-29T00:47:31;90632.00;;;18.90;100.00
9935;BME280;5006;41.828;23.478;2022-07-29T00:48:37;90640.00;;;18.97;100.00
9935;BME280;5006;41.828;23.478;2022-07-29T00:49:42;90636.97;;;19.23;100.00
9935;BME280;5006;41.828;23.478;2022-07-29T00:51:06;90638.16;;;19.06;100.00
9935;BME280;5006;41.828;23.478;2022-07-29T00:52:14;90633.78;;;18.96;100.00
9935;BME280;5006;41.828;23.478;2022-07-29T00:53:19;90638.94;;;18.78;100.00
9935;BME280;5006;41.828;23.478;2022-07-29T00:54:26;90637.97;;;18.85;100.00
9935;BME280;5006;41.828;23.478;2022-07-29T00:55:31;90636.13;;;18.82;100.00
9935;BME280;5006;41.828;23.478;2022-07-29T00:56:38;90634.06;;;18.86;100.00
9935;BME280;5006;41.828;23.478;2022-07-29T00:57:44;90638.06;;;18.81;100.00
9935;BME280;5006;41.828;23.478;2022-07-29T00:58:50;90635.78;;;18.80;100.00
9935;BME280;5006;41.828;23.478;2022-07-29T00:59:56;90643.94;;;18.80;100.00
9935;BME280;5006;41.828;23.478;2022-07-29T01:01:01;90637.97;;;18.85;100.00
9935;BME280;5006;41.828;23.478;2022-07-29T01:02:07;90639.28;;;19.09;100.00
9935;BME280;5006;41.828;23.478;2022-07-29T01:03:12;90634.41;;;18.88;100.00
9935;BME280;5006;41.828;23.478;2022-07-29T01:04:18;90630.06;;;18.90;100.00
9935;BME280;5006;41.828;23.478;2022-07-29T01:05:24;90625.22;;;18.98;100.00
9935;BME280;5006;41.828;23.478;2022-07-29T01:06:32;90626.34;;;19.13;100.00
9935;BME280;5006;41.828;23.478;2022-07-29T01:07:38;90625.03;;;19.05;100.00
9935;BME280;5006;41.828;23.478;2022-07-29T01:08:45;90620.44;;;19.02;100.00
9935;BME280;5006;41.828;23.478;2022-07-29T01:09:52;90622.53;;;19.10;100.00
9935;BME280;5006;41.828;23.478;2022-07-29T01:10:59;90614.47;;;19.07;100.00
9935;BME280;5006;41.828;23.478;2022-07-29T01:12:07;90616.34;;;19.10;100.00
9935;BME280;5006;41.828;23.478;2022-07-29T01:13:13;90618.50;;;19.31;100.00
9935;BME280;5006;41.828;23.478;2022-07-29T01:14:21;90610.72;;;19.17;100.00
9935;BME280;5006;41.828;23.478;2022-07-29T01:15:26;90618.25;;;18.97;100.00
9935;BME280;5006;41.828;23.478;2022-07-29T01:16:33;90622.34;;;18.89;100.00
9935;BME280;5006;41.828;23.478;2022-07-29T01:17:44;90613.84;;;18.87;100.00
9935;BME280;5006;41.828;23.478;2022-07-29T01:18:56;90612.53;;;18.79;100.00
9935;BME280;5006;41.828;23.478;2022-07-29T01:20:09;90614.38;;;19.10;100.00
9935;BME280;5006;41.828;23.478;2022-07-29T01:21:27;90609.59;;;19.14;100.00
9935;BME280;5006;41.828;23.478;2022-07-29T01:22:53;90604.69;;;19.09;100.00
9935;BME280;5006;41.828;23.478;2022-07-29T01:24:14;90606.00;;;19.05;100.00
9935;BME280;5006;41.828;23.478;2022-07-29T01:26:57;90593.78;;;19.25;100.00
9935;BME280;5006;41.828;23.478;2022-07-29T01:28:21;90592.38;;;19.33;100.00
9935;BME280;5006;41.828;23.478;2022-07-29T01:29:32;90593.69;;;19.41;100.00
9935;BME280;5006;41.828;23.478;2022-07-29T01:30:42;90582.59;;;19.23;100.00
9935;BME280;5006;41.828;23.478;2022-07-29T01:31:54;90589.41;;;19.28;100.00
9935;BME280;5006;41.828;23.478;2022-07-29T01:33:04;90581.81;;;19.23;100.00
9935;BME280;5006;41.828;23.478;2022-07-29T01:34:15;90583.97;;;19.28;100.00
9935;BME280;5006;41.828;23.478;2022-07-29T01:35:25;90579.31;;;19.41;100.00
9935;BME280;5006;41.828;23.478;2022-07-29T01:36:34;90582.81;;;19.41;100.00
9935;BME280;5006;41.828;23.478;2022-07-29T01:37:44;90583.50;;;19.70;100.00
9935;BME280;5006;41.828;23.478;2022-07-29T01:38:58;90580.09;;;19.54;100.00
9935;BME280;5006;41.828;23.478;2022-07-29T01:40:14;90586.75;;;19.77;100.00
9935;BME280;5006;41.828;23.478;2022-07-29T01:41:25;90591.69;;;19.82;100.00
9935;BME280;5006;41.828;23.478;2022-07-29T01:42:35;90594.59;;;20.00;99.08
9935;BME280;5006;41.828;23.478;2022-07-29T01:43:50;90594.72;;;19.97;98.66
9935;BME280;5006;41.828;23.478;2022-07-29T01:45:00;90595.38;;;20.13;97.07
9935;BME280;5006;41.828;23.478;2022-07-29T01:46:12;90600.91;;;19.60;99.72
9935;BME280;5006;41.828;23.478;2022-07-29T01:47:20;90597.31;;;19.75;99.84
9935;BME280;5006;41.828;23.478;2022-07-29T01:48:36;90605.16;;;19.61;100.00
9935;BME280;5006;41.828;23.478;2022-07-29T01:49:46;90599.81;;;19.70;99.25
9935;BME280;5006;41.828;23.478;2022-07-29T01:50:58;90596.13;;;19.76;97.80
9935;BME280;5006;41.828;23.478;2022-07-29T01:52:10;90599.84;;;19.95;97.76
9935;BME280;5006;41.828;23.478;2022-07-29T01:53:25;90601.47;;;19.92;98.65
9935;BME280;5006;41.828;23.478;2022-07-29T01:54:38;90594.06;;;19.56;100.00
9935;BME280;5006;41.828;23.478;2022-07-29T01:55:48;90601.34;;;19.96;100.00
9935;BME280;5006;41.828;23.478;2022-07-29T01:56:56;90596.69;;;19.96;100.00
9935;BME280;5006;41.828;23.478;2022-07-29T01:58:03;90602.69;;;20.04;99.79
9935;BME280;5006;41.828;23.478;2022-07-29T01:59:10;90601.25;;;19.87;99.29
9935;BME280;5006;41.828;23.478;2022-07-29T02:00:17;90594.94;;;19.65;100.00
9935;BME280;5006;41.828;23.478;2022-07-29T02:01:24;90597.88;;;19.83;100.00
9935;BME280;5006;41.828;23.478;2022-07-29T02:02:30;90600.91;;;19.60;100.00
9935;BME280;5006;41.828;23.478;2022-07-29T02:03:39;90601.72;;;19.32;100.00
9935;BME280;5006;41.828;23.478;2022-07-29T02:04:46;90598.03;;;19.39;100.00
9935;BME280;5006;41.828;23.478;2022-07-29T02:05:55;90604.91;;;19.43;100.00
9935;BME280;5006;41.828;23.478;2022-07-29T02:07:03;90598.78;;;19.27;100.00
9935;BME280;5006;41.828;23.478;2022-07-29T02:08:10;90595.81;;;19.21;100.00
9935;BME280;5006;41.828;23.478;2022-07-29T02:09:17;90595.69;;;19.12;100.00
9935;BME280;5006;41.828;23.478;2022-07-29T02:10:27;90590.06;;;19.19;100.00
9935;BME280;5006;41.828;23.478;2022-07-29T02:11:35;90594.13;;;19.27;100.00
9935;BME280;5006;41.828;23.478;2022-07-29T02:12:43;90586.91;;;19.21;100.00
9935;BME280;5006;41.828;23.478;2022-07-29T02:13:52;90592.97;;;19.12;100.00
9935;BME280;5006;41.828;23.478;2022-07-29T02:15:00;90587.81;;;19.02;100.00
9935;BME280;5006;41.828;23.478;2022-07-29T02:16:08;90587.53;;;19.12;100.00
9935;BME280;5006;41.828;23.478;2022-07-29T02:17:17;90589.16;;;19.10;100.00
9935;BME280;5006;41.828;23.478;2022-07-29T02:18:27;90580.19;;;19.25;100.00
9935;BME280;5006;41.828;23.478;2022-07-29T02:19:33;90578.50;;;19.15;100.00
9935;BME280;5006;41.828;23.478;2022-07-29T02:20:41;90583.47;;;19.33;100.00
9935;BME280;5006;41.828;23.478;2022-07-29T02:21:47;90574.84;;;19.22;100.00
9935;BME280;5006;41.828;23.478;2022-07-29T02:22:54;90586.00;;;19.11;100.00
9935;BME280;5006;41.828;23.478;2022-07-29T02:24:00;90579.31;;;19.00;100.00
9935;BME280;5006;41.828;23.478;2022-07-29T02:25:08;90581.72;;;19.26;100.00
9935;BME280;5006;41.828;23.478;2022-07-29T02:26:14;90576.56;;;19.16;100.00
9935;BME280;5006;41.828;23.478;2022-07-29T02:27:23;90577.78;;;19.27;100.00
9935;BME280;5006;41.828;23.478;2022-07-29T02:28:30;90575.97;;;19.37;100.00
9935;BME280;5006;41.828;23.478;2022-07-29T02:29:39;90578.47;;;19.44;100.00
9935;BME280;5006;41.828;23.478;2022-07-29T02:30:45;90581.50;;;19.33;100.00
9935;BME280;5006;41.828;23.478;2022-07-29T02:31:53;90585.44;;;19.57;100.00
9935;BME280;5006;41.828;23.478;2022-07-29T02:33:00;90579.78;;;19.39;100.00
9935;BME280;5006;41.828;23.478;2022-07-29T02:34:08;90585.34;;;19.73;100.00
9935;BME280;5006;41.828;23.478;2022-07-29T02:35:16;90582.19;;;19.62;100.00
9935;BME280;5006;41.828;23.478;2022-07-29T02:36:23;90589.25;;;19.72;99.71
9935;BME280;5006;41.828;23.478;2022-07-29T02:37:30;90590.78;;;19.73;98.86
9935;BME280;5006;41.828;23.478;2022-07-29T02:38:37;90591.13;;;19.87;98.56
9935;BME280;5006;41.828;23.478;2022-07-29T02:39:55;90592.56;;;19.79;98.32
9935;BME280;5006;41.828;23.478;2022-07-29T02:41:05;90588.06;;;19.85;97.59
9935;BME280;5006;41.828;23.478;2022-07-29T02:42:15;90587.78;;;20.08;97.21
9935;BME280;5006;41.828;23.478;2022-07-29T02:43:22;90586.56;;;19.84;98.14
9935;BME280;5006;41.828;23.478;2022-07-29T02:44:29;90590.59;;;19.68;100.00
9935;BME280;5006;41.828;23.478;2022-07-29T02:45:37;90588.59;;;19.31;100.00
9935;BME280;5006;41.828;23.478;2022-07-29T02:46:46;90587.56;;;19.25;100.00
9935;BME280;5006;41.828;23.478;2022-07-29T02:47:55;90581.72;;;19.26;100.00
9935;BME280;5006;41.828;23.478;2022-07-29T02:49:08;90582.38;;;19.30;100.00
9935;BME280;5006;41.828;23.478;2022-07-29T02:50:17;90583.16;;;19.43;100.00
9935;BME280;5006;41.828;23.478;2022-07-29T02:51:31;90582.50;;;19.39;100.00
9935;BME280;5006;41.828;23.478;2022-07-29T02:52:40;90580.88;;;19.42;100.00
9935;BME280;5006;41.828;23.478;2022-07-29T02:53:49;90577.56;;;19.22;100.00
9935;BME280;5006;41.828;23.478;2022-07-29T02:54:58;90584.13;;;19.08;100.00
9935;BME280;5006;41.828;23.478;2022-07-29T02:56:08;90580.28;;;19.34;100.00
9935;BME280;5006;41.828;23.478;2022-07-29T02:57:20;90583.47;;;19.45;100.00
9935;BME280;5006;41.828;23.478;2022-07-29T02:58:29;90580.00;;;19.45;100.00
9935;BME280;5006;41.828;23.478;2022-07-29T02:59:36;90583.66;;;19.26;100.00
9935;BME280;5006;41.828;23.478;2022-07-29T03:00:46;90583.72;;;19.10;100.00
9935;BME280;5006;41.828;23.478;2022-07-29T03:01:52;90585.31;;;18.95;100.00
9935;BME280;5006;41.828;23.478;2022-07-29T03:03:03;90585.22;;;19.11;100.00
9935;BME280;5006;41.828;23.478;2022-07-29T03:04:10;90589.16;;;19.10;100.00
9935;BME280;5006;41.828;23.478;2022-07-29T03:05:18;90582.38;;;19.02;100.00
9935;BME280;5006;41.828;23.478;2022-07-29T03:06:26;90588.59;;;18.74;100.00
9935;BME280;5006;41.828;23.478;2022-07-29T03:07:34;90580.28;;;18.93;100.00
9935;BME280;5006;41.828;23.478;2022-07-29T03:08:40;90575.72;;;18.90;100.00
9935;BME280;5006;41.828;23.478;2022-07-29T03:09:46;90583.38;;;19.08;100.00
9935;BME280;5006;41.828;23.478;2022-07-29T03:10:52;90580.66;;;19.08;100.00
9935;BME280;5006;41.828;23.478;2022-07-29T03:11:58;90575.00;;;19.15;100.00
9935;BME280;5006;41.828;23.478;2022-07-29T03:13:05;90581.94;;;18.91;100.00
9935;BME280;5006;41.828;23.478;2022-07-29T03:14:10;90587.31;;;18.78;100.00
9935;BME280;5006;41.828;23.478;2022-07-29T03:15:18;90588.25;;;18.72;100.00
9935;BME280;5006;41.828;23.478;2022-07-29T03:16:23;90586.09;;;18.51;100.00
9935;BME280;5006;41.828;23.478;2022-07-29T03:17:30;90589.81;;;18.57;100.00
9935;BME280;5006;41.828;23.478;2022-07-29T03:18:38;90585.75;;;18.65;100.00
9935;BME280;5006;41.828;23.478;2022-07-29T03:19:44;90588.88;;;18.92;100.00
9935;BME280;5006;41.828;23.478;2022-07-29T03:20:50;90593.44;;;18.95;100.00
9935;BME280;5006;41.828;23.478;2022-07-29T03:21:56;90584.28;;;19.17;100.00
9935;BME280;5006;41.828;23.478;2022-07-29T03:23:02;90593.16;;;19.05;100.00
9935;BME280;5006;41.828;23.478;2022-07-29T03:24:07;90601.75;;;19.04;100.00
9935;BME280;5006;41.828;23.478;2022-07-29T03:25:14;90596.97;;;19.08;100.00
9935;BME280;5006;41.828;23.478;2022-07-29T03:26:20;90595.59;;;19.16;100.00
9935;BME280;5006;41.828;23.478;2022-07-29T03:27:24;90594.03;;;19.15;100.00
9935;BME280;5006;41.828;23.478;2022-07-29T03:28:30;90597.53;;;19.15;100.00
9935;BME280;5006;41.828;23.478;2022-07-29T03:29:35;90599.47;;;19.31;100.00
9935;BME280;5006;41.828;23.478;2022-07-29T03:30:41;90599.47;;;19.15;100.00
9935;BME280;5006;41.828;23.478;2022-07-29T03:31:45;90600.56;;;19.05;100.00
9935;BME280;5006;41.828;23.478;2022-07-29T03:32:53;90605.69;;;18.87;100.00
9935;BME280;5006;41.828;23.478;2022-07-29T03:33:58;90602.13;;;18.90;100.00
9935;BME280;5006;41.828;23.478;2022-07-29T03:35:05;90603.25;;;18.48;100.00
9935;BME280;5006;41.828;23.478;2022-07-29T03:36:10;90608.50;;;18.55;100.00
9935;BME280;5006;41.828;23.478;2022-07-29T03:37:16;90607.94;;;18.76;100.00
9935;BME280;5006;41.828;23.478;2022-07-29T03:38:24;90608.94;;;18.82;100.00
9935;BME280;5006;41.828;23.478;2022-07-29T03:39:35;90597.53;;;18.87;100.00
9935;BME280;5006;41.828;23.478;2022-07-29T03:40:46;90607.47;;;18.65;100.00
9935;BME280;5006;41.828;23.478;2022-07-29T03:41:55;90608.19;;;18.81;100.00
9935;BME280;5006;41.828;23.478;2022-07-29T03:43:03;90613.94;;;18.55;100.00
9935;BME280;5006;41.828;23.478;2022-07-29T03:44:11;90611.88;;;18.59;100.00
9935;BME280;5006;41.828;23.478;2022-07-29T03:45:18;90612.66;;;18.59;100.00
9935;BME280;5006;41.828;23.478;2022-07-29T03:46:26;90616.69;;;18.67;100.00
9935;BME280;5006;41.828;23.478;2022-07-29T03:47:35;90609.94;;;18.43;100.00
9935;BME280;5006;41.828;23.478;2022-07-29T03:48:46;90619.22;;;18.46;100.00
9935;BME280;5006;41.828;23.478;2022-07-29T03:50:02;90612.59;;;18.47;100.00
9935;BME280;5006;41.828;23.478;2022-07-29T03:51:10;90623.28;;;18.54;100.00
9935;BME280;5006;41.828;23.478;2022-07-29T03:52:15;90615.19;;;18.66;100.00
9935;BME280;5006;41.828;23.478;2022-07-29T03:53:21;90621.00;;;18.36;100.00
9935;BME280;5006;41.828;23.478;2022-07-29T03:54:27;90616.84;;;18.32;100.00
9935;BME280;5006;41.828;23.478;2022-07-29T03:55:37;90612.59;;;18.47;100.00
9935;BME280;5006;41.828;23.478;2022-07-29T03:56:46;90614.03;;;18.51;100.00
9935;BME280;5006;41.828;23.478;2022-07-29T03:57:55;90612.53;;;18.63;100.00
9935;BME280;5006;41.828;23.478;2022-07-29T03:59:01;90615.75;;;18.74;100.00
9935;BME280;5006;41.828;23.478;2022-07-29T04:00:09;90612.88;;;18.81;100.00
9935;BME280;5006;41.828;23.478;2022-07-29T04:01:15;90611.19;;;18.71;100.00
9935;BME280;5006;41.828;23.478;2022-07-29T04:02:22;90614.81;;;18.80;100.00
9935;BME280;5006;41.828;23.478;2022-07-29T04:03:29;90619.63;;;18.89;100.00
9935;BME280;5006;41.828;23.478;2022-07-29T04:04:35;90615.84;;;18.99;100.00
9935;BME280;5006;41.828;23.478;2022-07-29T04:05:41;90612.50;;;19.07;100.00
9935;BME280;5006;41.828;23.478;2022-07-29T04:06:47;90617.50;;;19.25;100.00
9935;BME280;5006;41.828;23.478;2022-07-29T04:07:52;90612.50;;;19.23;100.00
9935;BME280;5006;41.828;23.478;2022-07-29T04:08:58;90613.81;;;19.31;100.00
9935;BME280;5006;41.828;23.478;2022-07-29T04:10:03;90617.88;;;19.52;100.00
9935;BME280;5006;41.828;23.478;2022-07-29T04:11:10;90611.81;;;19.85;100.00
9935;BME280;5006;41.828;23.478;2022-07-29T04:12:14;90613.44;;;19.70;100.00
9935;BME280;5006;41.828;23.478;2022-07-29T04:13:20;90611.59;;;19.79;100.00
9935;BME280;5006;41.828;23.478;2022-07-29T04:14:25;90616.94;;;19.95;100.00
9935;BME280;5006;41.828;23.478;2022-07-29T04:15:31;90613.03;;;19.96;100.00
9935;BME280;5006;41.828;23.478;2022-07-29T04:16:36;90613.03;;;20.09;100.00
9935;BME280;5006;41.828;23.478;2022-07-29T04:17:42;90616.22;;;20.07;100.00
9935;BME280;5006;41.828;23.478;2022-07-29T04:18:47;90612.03;;;20.15;100.00
9935;BME280;5006;41.828;23.478;2022-07-29T04:19:52;90609.44;;;20.24;100.00
9935;BME280;5006;41.828;23.478;2022-07-29T04:21:00;90616.72;;;20.40;100.00
9935;BME280;5006;41.828;23.478;2022-07-29T04:22:05;90615.78;;;20.55;100.00
9935;BME280;5006;41.828;23.478;2022-07-29T04:23:10;90616.00;;;20.73;100.00
9935;BME280;5006;41.828;23.478;2022-07-29T04:24:15;90616.00;;;21.07;100.00
9935;BME280;5006;41.828;23.478;2022-07-29T04:25:21;90618.47;;;21.14;100.00
9935;BME280;5006;41.828;23.478;2022-07-29T04:26:26;90617.06;;;20.88;100.00
9935;BME280;5006;41.828;23.478;2022-07-29T04:27:32;90614.22;;;20.79;100.00
9935;BME280;5006;41.828;23.478;2022-07-29T04:28:36;90619.97;;;20.94;100.00
9935;BME280;5006;41.828;23.478;2022-07-29T04:29:44;90612.63;;;21.25;100.00
9935;BME280;5006;41.828;23.478;2022-07-29T04:30:48;90620.31;;;21.17;100.00
9935;BME280;5006;41.828;23.478;2022-07-29T04:31:54;90619.69;;;21.13;99.58
9935;BME280;5006;41.828;23.478;2022-07-29T04:32:59;90619.25;;;21.58;98.94
9935;BME280;5006;41.828;23.478;2022-07-29T04:34:06;90621.59;;;21.68;98.80
9935;BME280;5006;41.828;23.478;2022-07-29T04:35:10;90623.56;;;21.46;100.00
9935;BME280;5006;41.828;23.478;2022-07-29T04:36:18;90621.47;;;21.50;99.31
9935;BME280;5006;41.828;23.478;2022-07-29T04:37:24;90616.84;;;21.38;100.00
9935;BME280;5006;41.828;23.478;2022-07-29T04:38:30;90617.53;;;21.51;100.00
9935;BME280;5006;41.828;23.478;2022-07-29T04:39:35;90619.97;;;21.58;99.38
9935;BME280;5006;41.828;23.478;2022-07-29T04:40:41;90620.38;;;21.26;100.00
9935;BME280;5006;41.828;23.478;2022-07-29T04:41:46;90621.09;;;21.39;100.00
9935;BME280;5006;41.828;23.478;2022-07-29T04:42:52;90621.59;;;21.25;100.00
9935;BME280;5006;41.828;23.478;2022-07-29T04:43:56;90618.59;;;21.32;100.00
9935;BME280;5006;41.828;23.478;2022-07-29T04:45:06;90620.69;;;21.28;100.00
9935;BME280;5006;41.828;23.478;2022-07-29T04:46:10;90628.13;;;21.28;100.00
9935;BME280;5006;41.828;23.478;2022-07-29T04:47:16;90625.84;;;21.48;100.00
9935;BME280;5006;41.828;23.478;2022-07-29T04:48:22;90617.22;;;21.49;100.00
9935;BME280;5006;41.828;23.478;2022-07-29T04:49:28;90617.94;;;21.41;100.00
9935;BME280;5006;41.828;23.478;2022-07-29T04:50:33;90621.53;;;21.38;100.00
9935;BME280;5006;41.828;23.478;2022-07-29T04:51:40;90624.59;;;21.40;100.00
9935;BME280;5006;41.828;23.478;2022-07-29T04:52:45;90623.63;;;21.55;100.00
9935;BME280;5006;41.828;23.478;2022-07-29T04:53:50;90618.34;;;21.82;100.00
9935;BME280;5006;41.828;23.478;2022-07-29T04:54:55;90624.81;;;21.97;99.80
9935;BME280;5006;41.828;23.478;2022-07-29T04:56:01;90624.22;;;22.02;96.98
9935;BME280;5006;41.828;23.478;2022-07-29T04:57:07;90630.19;;;22.49;94.76
9935;BME280;5006;41.828;23.478;2022-07-29T04:58:13;90622.66;;;22.62;93.28
9935;BME280;5006;41.828;23.478;2022-07-29T04:59:18;90624.25;;;22.41;93.72
9935;BME280;5006;41.828;23.478;2022-07-29T05:00:24;90627.09;;;22.38;95.23
9935;BME280;5006;41.828;23.478;2022-07-29T05:01:29;90624.63;;;22.31;96.03
9935;BME280;5006;41.828;23.478;2022-07-29T05:02:34;90620.53;;;22.84;94.25
9935;BME280;5006;41.828;23.478;2022-07-29T05:03:39;90627.31;;;23.19;92.30
9935;BME280;5006;41.828;23.478;2022-07-29T05:04:45;90630.72;;;22.83;92.39
9935;BME280;5006;41.828;23.478;2022-07-29T05:05:50;90624.44;;;22.56;94.23
9935;BME280;5006;41.828;23.478;2022-07-29T05:06:57;90631.13;;;22.55;97.98
9935;BME280;5006;41.828;23.478;2022-07-29T05:08:02;90623.19;;;22.39;97.71
9935;BME280;5006;41.828;23.478;2022-07-29T05:09:08;90626.56;;;22.21;99.17
9935;BME280;5006;41.828;23.478;2022-07-29T05:10:13;90622.97;;;22.33;98.14
9935;BME280;5006;41.828;23.478;2022-07-29T05:11:19;90628.94;;;22.41;98.70
9935;BME280;5006;41.828;23.478;2022-07-29T05:12:24;90625.38;;;22.62;97.04
9935;BME280;5006;41.828;23.478;2022-07-29T05:13:30;90626.94;;;22.90;95.61
9935;BME280;5006;41.828;23.478;2022-07-29T05:14:35;90630.81;;;23.19;91.80
9935;BME280;5006;41.828;23.478;2022-07-29T05:15:41;90631.81;;;22.95;92.75
9935;BME280;5006;41.828;23.478;2022-07-29T05:16:46;90629.88;;;23.22;91.28
9935;BME280;5006;41.828;23.478;2022-07-29T05:17:53;90632.56;;;23.04;91.40
9935;BME280;5006;41.828;23.478;2022-07-29T05:18:58;90624.78;;;24.11;88.33
9935;BME280;5006;41.828;23.478;2022-07-29T05:20:04;90635.44;;;24.09;86.57
9935;BME280;5006;41.828;23.478;2022-07-29T05:21:10;90629.66;;;24.07;86.08
9935;BME280;5006;41.828;23.478;2022-07-29T05:22:17;90628.38;;;24.26;84.53
9935;BME280;5006;41.828;23.478;2022-07-29T05:23:23;90626.34;;;24.03;85.97
9935;BME280;5006;41.828;23.478;2022-07-29T05:24:27;90627.50;;;24.11;85.17
9935;BME280;5006;41.828;23.478;2022-07-29T05:25:33;90628.06;;;24.24;84.45
9935;BME280;5006;41.828;23.478;2022-07-29T05:26:39;90625.34;;;24.24;85.27
9935;BME280;5006;41.828;23.478;2022-07-29T05:27:44;90624.06;;;24.42;84.44
9935;BME280;5006;41.828;23.478;2022-07-29T05:28:50;90630.53;;;24.13;85.11
9935;BME280;5006;41.828;23.478;2022-07-29T05:29:54;90629.72;;;23.89;85.58
9935;BME280;5006;41.828;23.478;2022-07-29T05:31:00;90629.56;;;23.83;86.35
9935;BME280;5006;41.828;23.478;2022-07-29T05:32:06;90628.44;;;23.99;85.83
9935;BME280;5006;41.828;23.478;2022-07-29T05:33:12;90624.44;;;24.27;84.35
9935;BME280;5006;41.828;23.478;2022-07-29T05:34:16;90620.72;;;24.71;82.23
9935;BME280;5006;41.828;23.478;2022-07-29T05:35:22;90622.53;;;24.42;83.73
9935;BME280;5006;41.828;23.478;2022-07-29T05:36:27;90623.81;;;24.96;80.95
9935;BME280;5006;41.828;23.478;2022-07-29T05:37:35;90622.97;;;25.66;78.26
9935;BME280;5006;41.828;23.478;2022-07-29T05:38:40;90619.16;;;25.87;77.21
9935;BME280;5006;41.828;23.478;2022-07-29T05:39:45;90621.16;;;25.87;76.29
9935;BME280;5006;41.828;23.478;2022-07-29T05:40:50;90624.81;;;25.69;75.49
9935;BME280;5006;41.828;23.478;2022-07-29T05:41:56;90625.25;;;26.06;75.38
9935;BME280;5006;41.828;23.478;2022-07-29T05:43:01;90627.84;;;25.71;75.52
9935;BME280;5006;41.828;23.478;2022-07-29T05:44:07;90625.91;;;26.01;74.46
9935;BME280;5006;41.828;23.478;2022-07-29T05:45:13;90632.25;;;26.36;73.49
9935;BME280;5006;41.828;23.478;2022-07-29T05:46:19;90630.94;;;26.60;72.27
9935;BME280;5006;41.828;23.478;2022-07-29T05:47:24;90630.06;;;26.11;73.08
9935;BME280;5006;41.828;23.478;2022-07-29T05:48:29;90626.94;;;26.03;72.93
9935;BME280;5006;41.828;23.478;2022-07-29T05:49:35;90630.06;;;26.25;72.81
9935;BME280;5006;41.828;23.478;2022-07-29T05:50:39;90636.88;;;25.86;73.47
9935;BME280;5006;41.828;23.478;2022-07-29T05:51:45;90630.63;;;26.00;74.37
9935;BME280;5006;41.828;23.478;2022-07-29T05:52:53;90635.19;;;25.89;73.65
9935;BME280;5006;41.828;23.478;2022-07-29T05:53:57;90639.16;;;26.02;72.99
9935;BME280;5006;41.828;23.478;2022-07-29T05:55:04;90632.94;;;25.78;73.74
9935;BME280;5006;41.828;23.478;2022-07-29T05:56:10;90643.31;;;25.83;73.28
9935;BME280;5006;41.828;23.478;2022-07-29T05:57:16;90640.78;;;25.09;75.66
9935;BME280;5006;41.828;23.478;2022-07-29T05:58:21;90638.66;;;25.37;75.84